createdAt,value
2017-04-09T00:00:30.483Z,20.55
2017-04-09T00:01:40.767Z,20.5
2017-04-09T00:02:51.293Z,20.52
2017-04-09T00:04:01.569Z,20.52
2017-04-09T00:05:11.542Z,20.58
2017-04-09T00:06:21.812Z,20.56
2017-04-09T00:07:31.767Z,20.59
2017-04-09T00:08:42.315Z,20.55
2017-04-09T00:09:52.629Z,20.55
2017-04-09T00:11:02.594Z,20.56
2017-04-09T00:12:12.551Z,20.46
2017-04-09T00:13:22.826Z,20.46
2017-04-09T00:14:33.363Z,20.56
2017-04-09T00:15:43.635Z,20.52
2017-04-09T00:16:53.599Z,20.52
2017-04-09T00:18:03.876Z,20.5
2017-04-09T00:19:14.144Z,20.55
2017-04-09T00:20:24.671Z,20.5
2017-04-09T00:21:34.637Z,20.58
2017-04-09T00:22:44.905Z,20.44
2017-04-09T00:23:55.171Z,20.49
2017-04-09T00:25:05.442Z,20.46
2017-04-09T00:26:15.656Z,20.49
2017-04-09T00:27:25.616Z,20.48
2017-04-09T00:28:35.885Z,20.44
2017-04-09T00:29:45.534Z,20.46
2017-04-09T00:30:55.499Z,20.5
2017-04-09T00:32:06.025Z,20.42
2017-04-09T00:33:15.679Z,20.4
2017-04-09T00:34:25.664Z,20.48
2017-04-09T00:35:35.939Z,20.52
2017-04-09T00:36:45.597Z,20.5
2017-04-09T00:37:55.809Z,20.5
2017-04-09T00:39:06.096Z,20.46
2017-04-09T00:40:16.366Z,20.52
2017-04-09T00:41:26.643Z,20.46
2017-04-09T00:42:36.606Z,20.44
2017-04-09T00:43:47.147Z,20.5
2017-04-09T00:44:57.108Z,20.46
2017-04-09T00:46:07.080Z,20.48
2017-04-09T00:47:17.372Z,20.42
2017-04-09T00:48:27.643Z,20.53
2017-04-09T00:49:38.172Z,20.53
2017-04-09T00:50:48.429Z,20.49
2017-04-09T00:51:58.409Z,20.55
2017-04-09T00:53:08.680Z,20.52
2017-04-09T00:54:19.310Z,20.46
2017-04-09T00:55:29.522Z,20.52
2017-04-09T00:56:39.547Z,20.42
2017-04-09T00:57:49.827Z,20.44
2017-04-09T00:58:59.806Z,20.42
2017-04-09T01:00:10.086Z,20.55
2017-04-09T01:01:20.627Z,20.44
2017-04-09T01:02:30.897Z,20.48
2017-04-09T01:03:41.167Z,20.39
2017-04-09T01:04:51.146Z,20.46
2017-04-09T01:06:01.106Z,20.42
2017-04-09T01:07:11.651Z,20.49
2017-04-09T01:08:21.925Z,20.42
2017-04-09T01:09:32.219Z,20.53
2017-04-09T01:10:42.485Z,20.44
2017-04-09T01:11:52.767Z,20.42
2017-04-09T01:13:03.305Z,20.48
2017-04-09T01:14:13.271Z,20.46
2017-04-09T01:15:23.545Z,20.49
2017-04-09T01:16:33.817Z,20.55
2017-04-09T01:17:43.788Z,20.44
2017-04-09T01:18:54.314Z,20.56
2017-04-09T01:20:04.581Z,20.44
2017-04-09T01:21:14.862Z,20.4
2017-04-09T01:22:25.133Z,20.46
2017-04-09T01:23:35.409Z,20.36
2017-04-09T01:24:45.926Z,20.42
2017-04-09T01:25:55.883Z,20.48
2017-04-09T01:27:05.535Z,20.4
2017-04-09T01:28:15.495Z,20.39
2017-04-09T01:29:25.464Z,20.39
2017-04-09T01:30:35.702Z,20.48
2017-04-09T01:31:45.666Z,20.39
2017-04-09T01:32:55.632Z,20.42
2017-04-09T01:34:05.937Z,20.39
2017-04-09T01:35:16.211Z,20.42
2017-04-09T01:36:26.730Z,20.39
2017-04-09T01:37:36.702Z,20.42
2017-04-09T01:38:46.355Z,20.39
2017-04-09T01:39:56.008Z,20.44
2017-04-09T01:41:06.288Z,20.42
2017-04-09T01:42:16.864Z,20.44
2017-04-09T01:43:26.844Z,20.52
2017-04-09T01:44:36.814Z,20.42
2017-04-09T01:45:46.770Z,20.48
2017-04-09T01:46:57.044Z,20.46
2017-04-09T01:48:07.250Z,20.42
2017-04-09T01:49:17.526Z,20.46
2017-04-09T01:50:27.489Z,20.37
2017-04-09T01:51:37.759Z,20.44
2017-04-09T01:52:48.038Z,20.52
2017-04-09T01:53:57.945Z,20.46
2017-04-09T01:55:07.921Z,20.48
2017-04-09T01:56:18.186Z,20.37
2017-04-09T01:57:28.461Z,20.44
2017-04-09T01:58:38.733Z,20.42
2017-04-09T01:59:48.949Z,20.44
2017-04-09T02:00:59.226Z,20.37
2017-04-09T02:02:09.496Z,20.33
2017-04-09T02:03:19.455Z,20.49
2017-04-09T02:04:29.424Z,20.52
2017-04-09T02:05:39.948Z,20.44
2017-04-09T02:06:49.908Z,20.44
2017-04-09T02:08:00.182Z,20.48
2017-04-09T02:09:10.458Z,20.32
2017-04-09T02:10:20.741Z,20.32
2017-04-09T02:11:31.265Z,20.39
2017-04-09T02:12:41.536Z,20.4
2017-04-09T02:13:51.498Z,20.32
2017-04-09T02:15:01.764Z,20.29
2017-04-09T02:16:11.412Z,20.4
2017-04-09T02:17:21.934Z,20.46
2017-04-09T02:18:31.902Z,20.46
2017-04-09T02:19:41.255Z,20.44
2017-04-09T02:20:51.537Z,20.42
2017-04-09T02:22:01.799Z,20.49
2017-04-09T02:23:12.071Z,20.46
2017-04-09T02:24:22.334Z,20.44
2017-04-09T02:25:32.292Z,20.37
2017-04-09T02:26:42.555Z,20.42
2017-04-09T02:27:52.856Z,20.46
2017-04-09T02:29:03.385Z,20.46
2017-04-09T02:30:13.652Z,20.46
2017-04-09T02:31:23.925Z,20.36
2017-04-09T02:32:34.211Z,20.44
2017-04-09T02:33:44.537Z,20.42
2017-04-09T02:34:55.065Z,20.48
2017-04-09T02:36:05.030Z,20.42
2017-04-09T02:37:14.681Z,20.46
2017-04-09T02:38:24.960Z,20.46
2017-04-09T02:39:35.229Z,20.36
2017-04-09T02:40:45.755Z,20.39
2017-04-09T02:41:56.030Z,20.3
2017-04-09T02:43:06.298Z,20.29
2017-04-09T02:44:16.570Z,20.39
2017-04-09T02:45:26.847Z,20.32
2017-04-09T02:46:36.760Z,20.32
2017-04-09T02:47:46.722Z,20.32
2017-04-09T02:48:56.994Z,20.39
2017-04-09T02:50:07.285Z,20.39
2017-04-09T02:51:17.255Z,20.32
2017-04-09T02:52:27.832Z,20.33
2017-04-09T02:53:38.105Z,20.32
2017-04-09T02:54:48.060Z,20.32
2017-04-09T02:55:58.015Z,20.42
2017-04-09T02:57:07.974Z,20.32
2017-04-09T02:58:18.502Z,20.3
2017-04-09T02:59:28.775Z,20.32
2017-04-09T03:00:38.732Z,20.32
2017-04-09T03:01:49.017Z,20.33
2017-04-09T03:02:59.291Z,20.37
2017-04-09T03:04:09.826Z,20.3
2017-04-09T03:05:20.095Z,20.44
2017-04-09T03:06:30.366Z,20.39
2017-04-09T03:07:40.637Z,20.32
2017-04-09T03:08:50.607Z,20.4
2017-04-09T03:10:00.834Z,20.32
2017-04-09T03:11:10.797Z,20.33
2017-04-09T03:12:20.760Z,20.44
2017-04-09T03:13:30.711Z,20.4
2017-04-09T03:14:40.671Z,20.29
2017-04-09T03:15:51.266Z,20.29
2017-04-09T03:17:01.229Z,20.34
2017-04-09T03:18:10.881Z,20.34
2017-04-09T03:19:21.155Z,20.36
2017-04-09T03:20:31.455Z,20.3
2017-04-09T03:21:41.974Z,20.39
2017-04-09T03:22:51.624Z,20.32
2017-04-09T03:24:01.903Z,20.32
2017-04-09T03:25:12.182Z,20.37
2017-04-09T03:26:22.144Z,20.27
2017-04-09T03:27:32.712Z,20.32
2017-04-09T03:28:42.995Z,20.33
2017-04-09T03:29:53.273Z,20.29
2017-04-09T03:31:03.553Z,20.3
2017-04-09T03:32:13.522Z,20.29
2017-04-09T03:33:23.735Z,20.3
2017-04-09T03:34:34.013Z,20.3
2017-04-09T03:35:44.284Z,20.32
2017-04-09T03:36:54.556Z,20.32
2017-04-09T03:38:04.524Z,20.29
2017-04-09T03:39:14.431Z,20.3
2017-04-09T03:40:24.705Z,20.29
2017-04-09T03:41:34.980Z,20.26
2017-04-09T03:42:45.248Z,20.32
2017-04-09T03:43:55.214Z,20.3
2017-04-09T03:45:05.432Z,20.3
2017-04-09T03:46:15.705Z,20.3
2017-04-09T03:47:25.981Z,20.3
2017-04-09T03:48:35.947Z,20.29
2017-04-09T03:49:46.224Z,20.29
2017-04-09T03:50:56.739Z,20.3
2017-04-09T03:52:07.003Z,20.32
2017-04-09T03:53:17.272Z,20.3
2017-04-09T03:54:27.232Z,20.3
2017-04-09T03:55:37.492Z,20.3
2017-04-09T03:56:48.012Z,20.27
2017-04-09T03:57:58.289Z,20.27
2017-04-09T03:59:08.558Z,20.3
2017-04-09T04:00:18.823Z,20.32
2017-04-09T04:01:28.800Z,20.3
2017-04-09T04:02:39.323Z,20.29
2017-04-09T04:03:48.663Z,20.29
2017-04-09T04:04:58.936Z,20.39
2017-04-09T04:06:09.211Z,20.3
2017-04-09T04:07:19.474Z,20.3
2017-04-09T04:08:30.046Z,20.32
2017-04-09T04:09:40.344Z,20.34
2017-04-09T04:10:50.311Z,20.36
2017-04-09T04:12:00.269Z,20.37
2017-04-09T04:13:10.553Z,20.32
2017-04-09T04:14:20.810Z,20.32
2017-04-09T04:15:30.764Z,20.34
2017-04-09T04:16:41.037Z,20.34
2017-04-09T04:17:51.016Z,20.29
2017-04-09T04:19:00.970Z,20.36
2017-04-09T04:20:11.501Z,20.32
2017-04-09T04:21:21.475Z,20.27
2017-04-09T04:22:31.425Z,20.36
2017-04-09T04:23:41.384Z,20.3
2017-04-09T04:24:51.647Z,20.34
2017-04-09T04:26:02.224Z,20.33
2017-04-09T04:27:12.498Z,20.34
2017-04-09T04:28:22.773Z,20.36
2017-04-09T04:29:32.730Z,20.36
2017-04-09T04:30:42.702Z,20.36
2017-04-09T04:31:53.227Z,20.32
2017-04-09T04:33:03.505Z,20.22
2017-04-09T04:34:13.150Z,20.36
2017-04-09T04:35:23.123Z,20.21
2017-04-09T04:36:33.404Z,20.33
2017-04-09T04:37:43.608Z,20.34
2017-04-09T04:38:53.897Z,20.3
2017-04-09T04:40:04.170Z,20.29
2017-04-09T04:41:14.448Z,20.33
2017-04-09T04:42:24.722Z,20.24
2017-04-09T04:43:35.306Z,20.33
2017-04-09T04:44:45.593Z,20.34
2017-04-09T04:45:55.864Z,20.26
2017-04-09T04:47:05.833Z,20.36
2017-04-09T04:48:16.104Z,20.27
2017-04-09T04:49:26.645Z,20.29
2017-04-09T04:50:36.295Z,20.3
2017-04-09T04:51:46.573Z,20.33
2017-04-09T04:52:56.552Z,20.33
2017-04-09T04:54:06.828Z,20.34
2017-04-09T04:55:17.039Z,20.33
2017-04-09T04:56:26.691Z,20.33
2017-04-09T04:57:36.964Z,20.36
2017-04-09T04:58:47.253Z,20.33
2017-04-09T04:59:57.543Z,20.3
2017-04-09T05:01:08.119Z,20.36
2017-04-09T05:02:18.073Z,20.32
2017-04-09T05:03:28.356Z,20.32
2017-04-09T05:04:38.629Z,20.33
2017-04-09T05:05:48.901Z,20.33
2017-04-09T05:06:59.477Z,20.32
2017-04-09T05:08:09.127Z,20.33
2017-04-09T05:09:19.097Z,20.32
2017-04-09T05:10:29.063Z,20.33
2017-04-09T05:11:39.338Z,20.3
2017-04-09T05:12:49.864Z,20.34
2017-04-09T05:14:00.142Z,20.36
2017-04-09T05:15:10.106Z,20.36
2017-04-09T05:16:20.070Z,20.32
2017-04-09T05:17:30.030Z,20.22
2017-04-09T05:18:40.567Z,20.21
2017-04-09T05:19:50.850Z,20.34
2017-04-09T05:21:01.119Z,20.32
2017-04-09T05:22:11.394Z,20.34
2017-04-09T05:23:21.664Z,20.37
2017-04-09T05:24:32.184Z,20.3
2017-04-09T05:25:42.455Z,20.36
2017-04-09T05:26:52.723Z,20.32
2017-04-09T05:28:02.994Z,20.34
2017-04-09T05:29:12.646Z,20.37
2017-04-09T05:30:23.215Z,20.32
2017-04-09T05:31:33.488Z,20.21
2017-04-09T05:32:43.781Z,20.3
2017-04-09T05:33:54.050Z,20.34
2017-04-09T05:35:04.315Z,20.32
2017-04-09T05:36:14.521Z,20.37
2017-04-09T05:37:24.489Z,20.36
2017-04-09T05:38:34.760Z,20.36
2017-04-09T05:39:44.715Z,20.3
2017-04-09T05:40:54.672Z,20.33
2017-04-09T05:42:05.209Z,20.34
2017-04-09T05:43:14.850Z,20.34
2017-04-09T05:44:25.144Z,20.34
2017-04-09T05:45:35.413Z,20.34
2017-04-09T05:46:45.687Z,20.34
2017-04-09T05:47:56.210Z,20.29
2017-04-09T05:49:06.498Z,20.32
2017-04-09T05:50:16.767Z,20.36
2017-04-09T05:51:26.718Z,20.37
2017-04-09T05:52:36.685Z,20.32
2017-04-09T05:53:47.204Z,20.32
2017-04-09T05:54:57.479Z,20.27
2017-04-09T05:56:07.754Z,20.34
2017-04-09T05:57:18.020Z,20.29
2017-04-09T05:58:28.284Z,20.29
2017-04-09T05:59:38.493Z,20.34
2017-04-09T06:00:48.770Z,20.33
2017-04-09T06:01:58.783Z,20.34
2017-04-09T06:03:08.757Z,20.3
2017-04-09T06:04:18.400Z,20.32
2017-04-09T06:05:28.615Z,20.29
2017-04-09T06:06:38.587Z,20.33
2017-04-09T06:07:48.874Z,20.29
2017-04-09T06:08:58.842Z,20.32
2017-04-09T06:10:09.120Z,20.33
2017-04-09T06:11:19.323Z,20.36
2017-04-09T06:12:29.614Z,20.36
2017-04-09T06:13:39.577Z,20.33
2017-04-09T06:14:49.531Z,20.37
2017-04-09T06:15:59.491Z,20.33
2017-04-09T06:17:09.713Z,20.3
2017-04-09T06:18:20.013Z,20.3
2017-04-09T06:19:30.286Z,20.37
2017-04-09T06:20:40.566Z,20.26
2017-04-09T06:21:50.844Z,20.32
2017-04-09T06:23:01.374Z,20.29
2017-04-09T06:24:11.331Z,20.3
2017-04-09T06:25:21.621Z,20.26
2017-04-09T06:26:31.897Z,20.3
2017-04-09T06:27:42.177Z,20.34
2017-04-09T06:28:52.699Z,20.29
2017-04-09T06:30:02.342Z,20.34
2017-04-09T06:31:12.310Z,20.29
2017-04-09T06:32:22.606Z,20.33
2017-04-09T06:33:32.878Z,20.32
2017-04-09T06:34:42.791Z,20.3
2017-04-09T06:35:53.081Z,20.34
2017-04-09T06:37:03.049Z,20.3
2017-04-09T06:38:13.021Z,20.27
2017-04-09T06:39:23.283Z,20.4
2017-04-09T06:40:33.855Z,20.32
2017-04-09T06:41:43.821Z,20.3
2017-04-09T06:42:54.103Z,20.34
2017-04-09T06:44:04.386Z,20.32
2017-04-09T06:45:14.357Z,20.32
2017-04-09T06:46:23.955Z,20.34
2017-04-09T06:47:34.261Z,20.29
2017-04-09T06:48:44.538Z,20.37
2017-04-09T06:49:54.816Z,20.3
2017-04-09T06:51:05.099Z,20.3
2017-04-09T06:52:15.639Z,20.32
2017-04-09T06:53:25.909Z,20.27
2017-04-09T06:54:36.216Z,20.39
2017-04-09T06:55:46.180Z,20.32
2017-04-09T06:56:56.450Z,20.42
2017-04-09T06:58:06.970Z,20.32
2017-04-09T06:59:16.935Z,20.3
2017-04-09T07:00:27.227Z,20.29
2017-04-09T07:01:37.194Z,20.3
2017-04-09T07:02:47.465Z,20.29
2017-04-09T07:03:58.041Z,20.39
2017-04-09T07:05:08.017Z,20.42
2017-04-09T07:06:18.281Z,20.32
2017-04-09T07:07:28.249Z,20.36
2017-04-09T07:08:38.223Z,20.37
2017-04-09T07:09:48.494Z,20.37
2017-04-09T07:10:58.768Z,20.48
2017-04-09T07:12:09.058Z,20.4
2017-04-09T07:13:19.022Z,20.37
2017-04-09T07:14:29.303Z,20.48
2017-04-09T07:15:39.514Z,20.44
2017-04-09T07:16:49.792Z,20.39
2017-04-09T07:17:59.760Z,20.39
2017-04-09T07:19:10.048Z,20.36
2017-04-09T07:20:20.322Z,20.48
2017-04-09T07:21:30.854Z,20.53
2017-04-09T07:22:40.827Z,20.55
2017-04-09T07:23:50.801Z,20.58
2017-04-09T07:25:00.763Z,20.55
2017-04-09T07:26:10.735Z,20.53
2017-04-09T07:27:21.317Z,20.39
2017-04-09T07:28:31.590Z,20.42
2017-04-09T07:29:41.270Z,20.53
2017-04-09T07:30:51.559Z,20.48
2017-04-09T07:32:01.522Z,20.53
2017-04-09T07:33:12.048Z,20.5
2017-04-09T07:34:22.331Z,20.5
2017-04-09T07:35:32.293Z,20.46
2017-04-09T07:36:42.563Z,20.52
2017-04-09T07:37:52.834Z,20.53
2017-04-09T07:39:03.469Z,20.44
2017-04-09T07:40:13.119Z,20.46
2017-04-09T07:41:23.393Z,20.53
2017-04-09T07:42:33.672Z,20.5
2017-04-09T07:43:43.956Z,20.5
2017-04-09T07:44:54.504Z,20.53
2017-04-09T07:46:04.174Z,20.49
2017-04-09T07:47:14.148Z,20.5
2017-04-09T07:48:24.441Z,20.52
2017-04-09T07:49:34.719Z,20.53
2017-04-09T07:50:45.297Z,20.58
2017-04-09T07:51:55.567Z,20.52
2017-04-09T07:53:05.866Z,20.53
2017-04-09T07:54:16.150Z,20.58
2017-04-09T07:55:26.106Z,20.53
2017-04-09T07:56:36.648Z,20.53
2017-04-09T07:57:46.927Z,20.55
2017-04-09T07:58:57.216Z,20.56
2017-04-09T08:00:07.497Z,20.58
2017-04-09T08:01:17.788Z,20.67
2017-04-09T08:02:28.325Z,20.58
2017-04-09T08:03:38.593Z,20.66
2017-04-09T08:04:48.893Z,20.66
2017-04-09T08:05:59.213Z,20.64
2017-04-09T08:07:09.496Z,20.63
2017-04-09T08:08:20.033Z,20.58
2017-04-09T08:09:29.998Z,20.64
2017-04-09T08:10:40.278Z,20.64
2017-04-09T08:11:50.238Z,20.66
2017-04-09T08:13:00.515Z,20.67
2017-04-09T08:14:11.056Z,20.6
2017-04-09T08:15:21.347Z,20.63
2017-04-09T08:16:31.310Z,20.59
2017-04-09T08:17:41.587Z,20.63
2017-04-09T08:18:51.871Z,20.67
2017-04-09T08:20:02.085Z,20.59
2017-04-09T08:21:12.365Z,20.64
2017-04-09T08:22:22.643Z,20.67
2017-04-09T08:23:32.613Z,20.67
2017-04-09T08:24:42.581Z,20.71
2017-04-09T08:25:53.106Z,20.67
2017-04-09T08:27:03.383Z,20.71
2017-04-09T08:28:13.661Z,20.68
2017-04-09T08:29:23.940Z,20.73
2017-04-09T08:30:34.250Z,20.77
2017-04-09T08:31:44.831Z,20.77
2017-04-09T08:32:55.107Z,20.75
2017-04-09T08:34:04.771Z,20.68
2017-04-09T08:35:15.064Z,20.74
2017-04-09T08:36:24.729Z,20.74
2017-04-09T08:37:34.960Z,20.75
2017-04-09T08:38:45.235Z,20.78
2017-04-09T08:39:55.515Z,20.7
2017-04-09T08:41:05.487Z,20.82
2017-04-09T08:42:15.772Z,20.8
2017-04-09T08:43:26.028Z,20.8
2017-04-09T08:44:35.684Z,20.8
2017-04-09T08:45:45.964Z,20.78
2017-04-09T08:46:55.943Z,20.78
2017-04-09T08:48:06.236Z,20.85
2017-04-09T08:49:16.780Z,20.74
2017-04-09T08:50:27.064Z,20.88
2017-04-09T08:51:36.729Z,20.82
2017-04-09T08:52:47.004Z,20.88
2017-04-09T08:53:56.972Z,20.83
2017-04-09T08:55:07.542Z,20.85
2017-04-09T08:56:17.829Z,20.89
2017-04-09T08:57:27.804Z,20.83
2017-04-09T08:58:38.100Z,20.83
2017-04-09T08:59:48.078Z,20.93
2017-04-09T09:00:58.654Z,20.85
2017-04-09T09:02:08.937Z,20.86
2017-04-09T09:03:19.231Z,20.9
2017-04-09T09:04:29.520Z,20.88
2017-04-09T09:05:39.818Z,20.89
2017-04-09T09:06:49.724Z,20.86
2017-04-09T09:08:00.013Z,20.89
2017-04-09T09:09:10.302Z,20.9
2017-04-09T09:10:19.980Z,20.89
2017-04-09T09:11:29.942Z,20.92
2017-04-09T09:12:40.179Z,20.86
2017-04-09T09:13:50.157Z,20.89
2017-04-09T09:15:00.440Z,20.89
2017-04-09T09:16:10.739Z,20.85
2017-04-09T09:17:21.011Z,20.95
2017-04-09T09:18:31.233Z,20.9
2017-04-09T09:19:41.546Z,20.92
2017-04-09T09:20:51.522Z,20.95
2017-04-09T09:22:01.817Z,20.88
2017-04-09T09:23:12.109Z,20.92
2017-04-09T09:24:21.721Z,20.98
2017-04-09T09:25:31.692Z,20.89
2017-04-09T09:26:41.976Z,20.96
2017-04-09T09:27:52.252Z,20.92
2017-04-09T09:29:02.543Z,21.04
2017-04-09T09:30:13.076Z,20.98
2017-04-09T09:31:23.372Z,20.92
2017-04-09T09:32:33.680Z,21.04
2017-04-09T09:33:43.979Z,20.95
2017-04-09T09:34:54.272Z,20.95
2017-04-09T09:36:04.830Z,21
2017-04-09T09:37:14.810Z,20.88
2017-04-09T09:38:25.114Z,20.9
2017-04-09T09:39:35.098Z,21.03
2017-04-09T09:40:45.390Z,21.01
2017-04-09T09:41:55.607Z,20.83
2017-04-09T09:43:05.890Z,20.88
2017-04-09T09:44:16.194Z,20.93
2017-04-09T09:45:26.479Z,20.95
2017-04-09T09:46:36.759Z,20.93
2017-04-09T09:47:47.036Z,20.83
2017-04-09T09:48:57.317Z,20.88
2017-04-09T09:50:07.290Z,20.93
2017-04-09T09:51:17.294Z,20.93
2017-04-09T09:52:27.591Z,20.9
2017-04-09T09:53:37.557Z,20.92
2017-04-09T09:54:47.869Z,20.86
2017-04-09T09:55:58.171Z,21.01
2017-04-09T09:57:08.489Z,21.01
2017-04-09T09:58:18.157Z,20.9
2017-04-09T09:59:28.728Z,20.88
2017-04-09T10:00:39.022Z,20.89
2017-04-09T10:01:49.006Z,21.05
2017-04-09T10:02:58.660Z,21.03
2017-04-09T10:04:08.645Z,20.85
2017-04-09T10:05:18.876Z,20.96
2017-04-09T10:06:29.181Z,20.98
2017-04-09T10:07:39.161Z,20.89
2017-04-09T10:08:49.152Z,20.95
2017-04-09T10:09:59.153Z,20.89
2017-04-09T10:11:09.706Z,21.03
2017-04-09T10:12:19.714Z,21.03
2017-04-09T10:13:30.029Z,21
2017-04-09T10:14:39.711Z,20.89
2017-04-09T10:15:50.009Z,20.96
2017-04-09T10:16:59.943Z,20.95
2017-04-09T10:18:10.239Z,20.96
2017-04-09T10:19:19.611Z,20.93
2017-04-09T10:20:29.924Z,21.03
2017-04-09T10:21:40.227Z,20.98
2017-04-09T10:22:50.474Z,20.98
2017-04-09T10:24:00.787Z,20.98
2017-04-09T10:25:10.778Z,20.92
2017-04-09T10:26:20.783Z,21
2017-04-09T10:27:31.091Z,20.88
2017-04-09T10:28:41.388Z,20.96
2017-04-09T10:29:51.414Z,21
2017-04-09T10:31:01.713Z,20.96
2017-04-09T10:32:12.049Z,20.98
2017-04-09T10:33:22.376Z,20.95
2017-04-09T10:34:32.610Z,21.03
2017-04-09T10:35:42.928Z,21
2017-04-09T10:36:53.215Z,21
2017-04-09T10:38:03.516Z,21
2017-04-09T10:39:13.807Z,21.05
2017-04-09T10:40:24.366Z,20.95
2017-04-09T10:41:34.344Z,21
2017-04-09T10:42:44.348Z,21
2017-04-09T10:43:54.651Z,21.03
2017-04-09T10:45:04.647Z,20.98
2017-04-09T10:46:15.181Z,21.04
2017-04-09T10:47:25.167Z,21.03
2017-04-09T10:48:35.493Z,21.03
2017-04-09T10:49:45.465Z,20.93
2017-04-09T10:50:55.787Z,21.05
2017-04-09T10:52:06.342Z,20.95
2017-04-09T10:53:16.653Z,20.98
2017-04-09T10:54:26.631Z,20.95
2017-04-09T10:55:36.930Z,21.04
2017-04-09T10:56:47.254Z,21
2017-04-09T10:57:57.821Z,21.01
2017-04-09T10:59:07.805Z,21.01
2017-04-09T11:00:17.800Z,21.05
2017-04-09T11:01:27.774Z,21.03
2017-04-09T11:02:38.066Z,20.95
2017-04-09T11:03:48.622Z,21.04
2017-04-09T11:04:58.910Z,21
2017-04-09T11:06:09.231Z,21.03
2017-04-09T11:07:19.530Z,21.04
2017-04-09T11:08:29.848Z,21.01
2017-04-09T11:09:40.403Z,21.05
2017-04-09T11:10:50.705Z,21.04
2017-04-09T11:12:00.998Z,21.03
2017-04-09T11:13:10.972Z,21.04
2017-04-09T11:14:21.001Z,21.03
2017-04-09T11:15:31.231Z,21.05
2017-04-09T11:16:41.548Z,21.03
2017-04-09T11:17:51.861Z,21
2017-04-09T11:19:01.831Z,21.05
2017-04-09T11:20:12.142Z,21.04
2017-04-09T11:21:22.705Z,21.07
2017-04-09T11:22:32.718Z,21.07
2017-04-09T11:23:42.708Z,21.04
2017-04-09T11:24:53.044Z,21.04
2017-04-09T11:26:03.347Z,21.01
2017-04-09T11:27:13.900Z,21.03
2017-04-09T11:28:24.188Z,21.04
2017-04-09T11:29:34.481Z,21.04
2017-04-09T11:30:44.791Z,21.1
2017-04-09T11:31:55.085Z,21.04
2017-04-09T11:33:05.628Z,21.01
2017-04-09T11:34:15.947Z,21.11
2017-04-09T11:35:26.283Z,21.15
2017-04-09T11:36:36.263Z,21.07
2017-04-09T11:37:46.256Z,21.04
2017-04-09T11:38:56.810Z,21.05
2017-04-09T11:40:07.113Z,21.05
2017-04-09T11:41:17.441Z,21.13
2017-04-09T11:42:27.420Z,21.04
2017-04-09T11:43:37.103Z,21.1
2017-04-09T11:44:47.638Z,21.04
2017-04-09T11:45:57.628Z,21.05
2017-04-09T11:47:07.615Z,21.03
2017-04-09T11:48:17.917Z,21.01
2017-04-09T11:49:28.212Z,21.11
2017-04-09T11:50:38.765Z,21.04
2017-04-09T11:51:49.075Z,21.13
2017-04-09T11:52:59.371Z,21.07
2017-04-09T11:54:09.664Z,21.07
2017-04-09T11:55:19.648Z,21.1
2017-04-09T11:56:30.199Z,21.11
2017-04-09T11:57:40.217Z,21.03
2017-04-09T11:58:50.203Z,21.13
2017-04-09T12:00:00.492Z,21.03
2017-04-09T12:01:10.487Z,21.01
2017-04-09T12:02:21.036Z,21.05
2017-04-09T12:03:31.361Z,21
2017-04-09T12:04:41.661Z,21.13
2017-04-09T12:05:51.647Z,21.04
2017-04-09T12:07:01.672Z,21.05
2017-04-09T12:08:12.294Z,21
2017-04-09T12:09:22.314Z,21.13
2017-04-09T12:10:32.297Z,21.01
2017-04-09T12:11:42.596Z,21.01
2017-04-09T12:12:52.896Z,21.01
2017-04-09T12:14:03.440Z,21.03
2017-04-09T12:15:13.410Z,21.13
2017-04-09T12:16:23.706Z,21.13
2017-04-09T12:17:34.018Z,21.01
2017-04-09T12:18:44.307Z,21
2017-04-09T12:19:54.863Z,21.03
2017-04-09T12:21:05.157Z,21.1
2017-04-09T12:22:15.447Z,21.08
2017-04-09T12:23:25.747Z,21.13
2017-04-09T12:24:36.048Z,21.04
2017-04-09T12:25:46.287Z,21.14
2017-04-09T12:26:56.280Z,21.17
2017-04-09T12:28:06.254Z,21.13
2017-04-09T12:29:15.908Z,21.03
2017-04-09T12:30:25.905Z,21.13
2017-04-09T12:31:36.151Z,21.1
2017-04-09T12:32:46.124Z,21.17
2017-04-09T12:33:56.103Z,21.11
2017-04-09T12:35:06.413Z,21.13
2017-04-09T12:36:16.707Z,21.14
2017-04-09T12:37:26.942Z,21.13
2017-04-09T12:38:36.606Z,21.14
2017-04-09T12:39:46.893Z,21.05
2017-04-09T12:40:57.201Z,21.15
2017-04-09T12:42:07.191Z,21.04
2017-04-09T12:43:17.430Z,21.15
2017-04-09T12:44:27.729Z,21.08
2017-04-09T12:45:37.743Z,21.11
2017-04-09T12:46:47.736Z,21.1
2017-04-09T12:47:58.054Z,21.11
2017-04-09T12:49:08.593Z,21.13
2017-04-09T12:50:18.574Z,21.1
2017-04-09T12:51:28.564Z,21.14
2017-04-09T12:52:38.864Z,21.15
2017-04-09T12:53:49.155Z,21.15
2017-04-09T12:54:59.100Z,21.14
2017-04-09T12:56:09.085Z,21.14
2017-04-09T12:57:19.373Z,21.07
2017-04-09T12:58:29.691Z,21.11
2017-04-09T12:59:39.676Z,21.15
2017-04-09T13:00:49.903Z,21.13
2017-04-09T13:02:00.187Z,21.14
2017-04-09T13:03:10.166Z,21.15
2017-04-09T13:04:20.164Z,21.15
2017-04-09T13:05:30.470Z,21.14
2017-04-09T13:06:41.010Z,21.13
2017-04-09T13:07:51.523Z,21.14
2017-04-09T13:09:01.824Z,21.15
2017-04-09T13:10:11.802Z,21.13
2017-04-09T13:11:22.091Z,21.14
2017-04-09T13:12:32.624Z,21.15
2017-04-09T13:13:42.907Z,21.19
2017-04-09T13:14:53.199Z,21.19
2017-04-09T13:16:02.862Z,21.1
2017-04-09T13:17:13.148Z,21.11
2017-04-09T13:18:23.385Z,21.13
2017-04-09T13:19:33.680Z,21.15
2017-04-09T13:20:43.648Z,21.2
2017-04-09T13:21:53.954Z,21.1
2017-04-09T13:23:04.231Z,21.15
2017-04-09T13:24:14.826Z,21.1
2017-04-09T13:25:25.122Z,21.19
2017-04-09T13:26:35.423Z,21.14
2017-04-09T13:27:45.707Z,21.13
2017-04-09T13:28:55.985Z,21.15
2017-04-09T13:30:05.935Z,21.08
2017-04-09T13:31:16.227Z,21.19
2017-04-09T13:32:25.892Z,21.08
2017-04-09T13:33:36.201Z,21.19
2017-04-09T13:34:46.503Z,21.15
2017-04-09T13:35:56.412Z,21.15
2017-04-09T13:37:06.700Z,21.17
2017-04-09T13:38:16.992Z,21.23
2017-04-09T13:39:27.302Z,21.22
2017-04-09T13:40:37.592Z,21.14
2017-04-09T13:41:47.839Z,21.15
2017-04-09T13:42:58.132Z,21.13
2017-04-09T13:44:08.446Z,21.15
2017-04-09T13:45:18.748Z,21.15
2017-04-09T13:46:28.725Z,21.17
2017-04-09T13:47:38.942Z,21.13
2017-04-09T13:48:49.219Z,21.14
2017-04-09T13:49:59.251Z,21.17
2017-04-09T13:51:09.543Z,21.08
2017-04-09T13:52:19.825Z,21.11
2017-04-09T13:53:30.061Z,21.19
2017-04-09T13:54:40.350Z,21.13
2017-04-09T13:55:50.023Z,21.11
2017-04-09T13:57:00.011Z,21.15
2017-04-09T13:58:09.997Z,21.2
2017-04-09T13:59:20.214Z,21.22
2017-04-09T14:00:30.190Z,21.22
2017-04-09T14:01:40.471Z,21.19
2017-04-09T14:02:50.749Z,21.14
2017-04-09T14:04:01.046Z,21.15
2017-04-09T14:05:11.265Z,21.2
2017-04-09T14:06:21.604Z,21.17
2017-04-09T14:07:31.890Z,21.2
2017-04-09T14:08:41.236Z,21.15
2017-04-09T14:09:51.522Z,21.11
2017-04-09T14:11:01.747Z,21.15
2017-04-09T14:12:11.636Z,21.23
2017-04-09T14:13:21.912Z,21.22
2017-04-09T14:14:32.208Z,21.13
2017-04-09T14:15:42.489Z,21.15
2017-04-09T14:16:53.073Z,21.15
2017-04-09T14:18:03.373Z,21.17
2017-04-09T14:19:13.670Z,21.15
2017-04-09T14:20:23.953Z,21.17
2017-04-09T14:21:34.252Z,21.15
2017-04-09T14:22:44.804Z,21.19
2017-04-09T14:23:55.084Z,21.15
2017-04-09T14:25:05.366Z,21.19
2017-04-09T14:26:15.646Z,21.11
2017-04-09T14:27:25.942Z,21.19
2017-04-09T14:28:36.564Z,21.17
2017-04-09T14:29:46.250Z,21.15
2017-04-09T14:30:56.243Z,21.2
2017-04-09T14:32:06.524Z,21.17
2017-04-09T14:33:16.814Z,21.15
2017-04-09T14:34:27.361Z,21.19
2017-04-09T14:35:37.349Z,21.08
2017-04-09T14:36:47.628Z,21.23
2017-04-09T14:37:57.912Z,21.19
2017-04-09T14:39:08.215Z,21.11
2017-04-09T14:40:18.762Z,21.17
2017-04-09T14:41:29.055Z,21.17
2017-04-09T14:42:39.040Z,21.2
2017-04-09T14:43:48.707Z,21.14
2017-04-09T14:44:58.991Z,21.14
2017-04-09T14:46:08.899Z,21.17
2017-04-09T14:47:19.192Z,21.2
2017-04-09T14:48:29.487Z,21.15
2017-04-09T14:49:39.776Z,21.2
2017-04-09T14:50:49.453Z,21.17
2017-04-09T14:51:59.978Z,21.2
2017-04-09T14:53:10.271Z,21.15
2017-04-09T14:54:20.583Z,21.17
2017-04-09T14:55:30.872Z,21.2
2017-04-09T14:56:40.863Z,21.23
2017-04-09T14:57:51.409Z,21.1
2017-04-09T14:59:01.704Z,21.14
2017-04-09T15:00:11.998Z,21.19
2017-04-09T15:01:22.281Z,21.2
2017-04-09T15:02:32.266Z,21.17
2017-04-09T15:03:42.809Z,21.15
2017-04-09T15:04:53.094Z,21.13
2017-04-09T15:06:03.388Z,21.14
2017-04-09T15:07:13.668Z,21.08
2017-04-09T15:08:24.009Z,21.25
2017-04-09T15:09:34.551Z,21.15